createdAt,value
2019-01-26T00:02:09.415Z,-2.76
2019-01-26T00:04:38.658Z,-2.71
2019-01-26T00:07:07.882Z,-2.67
2019-01-26T00:09:39.189Z,-2.65
2019-01-26T00:12:10.453Z,-2.58
2019-01-26T00:14:39.909Z,-2.53
2019-01-26T00:17:09.157Z,-2.45
2019-01-26T00:19:38.727Z,-2.46
2019-01-26T00:22:08.289Z,-2.49
2019-01-26T00:24:37.530Z,-2.57
2019-01-26T00:27:06.743Z,-2.56
2019-01-26T00:29:35.984Z,-2.60
2019-01-26T00:32:05.512Z,-2.61
2019-01-26T00:34:34.772Z,-2.68
2019-01-26T00:37:04.052Z,-2.69
2019-01-26T00:39:33.296Z,-2.63
2019-01-26T00:42:02.525Z,-2.61
2019-01-26T00:44:31.797Z,-2.65
2019-01-26T00:47:01.141Z,-2.63
2019-01-26T00:49:30.386Z,-2.62
2019-01-26T00:51:59.598Z,-2.62
2019-01-26T00:54:28.846Z,-2.59
2019-01-26T00:56:58.057Z,-2.63
2019-01-26T00:59:27.602Z,-2.67
2019-01-26T01:01:56.886Z,-2.65
2019-01-26T01:04:26.127Z,-2.66
2019-01-26T01:06:56.048Z,-2.65
2019-01-26T01:09:25.302Z,-2.64
2019-01-26T01:11:54.779Z,-2.53
2019-01-26T01:14:24.049Z,-2.48
2019-01-26T01:16:53.267Z,-2.56
2019-01-26T01:19:22.487Z,-2.56
2019-01-26T01:21:51.862Z,-2.56
2019-01-26T01:24:21.099Z,-2.59
2019-01-26T01:26:50.348Z,-2.59
2019-01-26T01:29:19.686Z,-2.57
2019-01-26T01:31:48.936Z,-2.56
2019-01-26T01:34:18.174Z,-2.49
2019-01-26T01:36:47.414Z,-2.42
2019-01-26T01:39:16.678Z,-2.23
2019-01-26T01:41:45.903Z,-2.17
2019-01-26T01:44:15.268Z,-2.15
2019-01-26T01:46:44.532Z,-2.14
2019-01-26T01:49:13.744Z,-2.14
2019-01-26T01:51:42.986Z,-2.12
2019-01-26T01:54:12.244Z,-2.01
2019-01-26T01:56:41.507Z,-2.07
2019-01-26T01:59:10.734Z,-2.05
2019-01-26T02:01:39.991Z,-2.06
2019-01-26T02:04:09.217Z,-1.97
2019-01-26T02:06:38.466Z,-2.01
2019-01-26T02:09:09.469Z,-1.95
2019-01-26T02:11:38.717Z,-2.08
2019-01-26T02:14:07.961Z,-2.03
2019-01-26T02:16:37.208Z,-2.00
2019-01-26T02:19:06.461Z,-1.89
2019-01-26T02:21:35.712Z,-1.89
2019-01-26T02:24:04.967Z,-1.83
2019-01-26T02:26:34.416Z,-1.86
2019-01-26T02:29:03.662Z,-1.86
2019-01-26T02:31:32.915Z,-1.80
2019-01-26T02:34:02.122Z,-1.81
2019-01-26T02:36:31.363Z,-1.83
2019-01-26T02:39:00.689Z,-1.95
2019-01-26T02:41:29.924Z,-1.91
2019-01-26T02:43:59.153Z,-1.86
2019-01-26T02:46:28.474Z,-1.89
2019-01-26T02:48:57.700Z,-1.91
2019-01-26T02:51:26.968Z,-1.92
2019-01-26T02:53:56.190Z,-1.92
2019-01-26T02:56:25.441Z,-2.02
2019-01-26T02:58:54.663Z,-2.03
2019-01-26T03:01:23.933Z,-2.13
2019-01-26T03:03:53.160Z,-2.18
2019-01-26T03:06:22.409Z,-2.18
2019-01-26T03:08:51.626Z,-2.23
2019-01-26T03:11:20.865Z,-2.24
2019-01-26T03:13:50.080Z,-2.25
2019-01-26T03:16:19.328Z,-2.26
2019-01-26T03:18:48.552Z,-2.32
2019-01-26T03:21:17.872Z,-2.39
2019-01-26T03:23:47.196Z,-2.40
2019-01-26T03:26:16.411Z,-2.53
2019-01-26T03:28:45.667Z,-2.53
2019-01-26T03:31:14.947Z,-2.53
2019-01-26T03:33:44.189Z,-2.48
2019-01-26T03:36:13.443Z,-2.52
2019-01-26T03:38:42.739Z,-2.54
2019-01-26T03:41:11.955Z,-2.52
2019-01-26T03:43:41.189Z,-2.52
2019-01-26T03:46:10.407Z,-2.57
2019-01-26T03:48:39.669Z,-2.55
2019-01-26T03:51:08.915Z,-2.57
2019-01-26T03:53:38.167Z,-2.59
2019-01-26T03:56:07.389Z,-2.58
2019-01-26T03:58:36.631Z,-2.52
2019-01-26T04:01:06.027Z,-2.51
2019-01-26T04:03:35.282Z,-2.46
2019-01-26T04:06:04.803Z,-2.42
2019-01-26T04:08:34.051Z,-2.39
2019-01-26T04:11:03.285Z,-2.33
2019-01-26T04:13:32.528Z,-2.42
2019-01-26T04:16:01.807Z,-2.43
2019-01-26T04:18:31.071Z,-2.52
2019-01-26T04:21:00.297Z,-2.59
2019-01-26T04:23:29.537Z,-2.66
2019-01-26T04:25:58.747Z,-2.64
2019-01-26T04:28:28.002Z,-2.70
2019-01-26T04:30:58.023Z,-2.69
2019-01-26T04:33:27.278Z,-2.68
2019-01-26T04:35:56.526Z,-2.71
2019-01-26T04:38:25.821Z,-2.71
2019-01-26T04:40:55.045Z,-2.64
2019-01-26T04:43:24.294Z,-2.60
2019-01-26T04:45:55.221Z,-2.60
2019-01-26T04:48:24.461Z,-2.53
2019-01-26T04:50:53.689Z,-2.49
2019-01-26T04:53:22.948Z,-2.46
2019-01-26T04:55:52.177Z,-2.43
2019-01-26T04:58:21.439Z,-2.45
2019-01-26T05:00:50.684Z,-2.45
2019-01-26T05:03:19.904Z,-2.44
2019-01-26T05:05:49.360Z,-2.45
2019-01-26T05:08:18.586Z,-2.44
2019-01-26T05:10:47.835Z,-2.54
2019-01-26T05:13:17.039Z,-2.47
2019-01-26T05:15:46.288Z,-2.40
2019-01-26T05:18:15.508Z,-2.32
2019-01-26T05:20:44.749Z,-2.34
2019-01-26T05:23:13.978Z,-2.41
2019-01-26T05:25:43.223Z,-2.30
2019-01-26T05:28:12.455Z,-2.21
2019-01-26T05:30:41.757Z,-2.19
2019-01-26T05:33:11.046Z,-2.11
2019-01-26T05:35:40.252Z,-2.10
2019-01-26T05:38:09.489Z,-2.16
2019-01-26T05:40:38.732Z,-2.25
2019-01-26T05:43:07.976Z,-2.28
2019-01-26T05:45:37.238Z,-2.20
2019-01-26T05:48:06.721Z,-2.17
2019-01-26T05:50:35.985Z,-2.18
2019-01-26T05:53:05.362Z,-2.20
2019-01-26T05:55:34.844Z,-2.12
2019-01-26T05:58:04.123Z,-2.19
2019-01-26T06:00:36.993Z,-2.27
2019-01-26T06:03:06.622Z,-2.26
2019-01-26T06:05:35.878Z,-2.32
2019-01-26T06:08:05.480Z,-2.30
2019-01-26T06:10:34.724Z,-2.33
2019-01-26T06:13:03.959Z,-2.36
2019-01-26T06:15:33.212Z,-2.38
2019-01-26T06:18:02.449Z,-2.38
2019-01-26T06:20:31.701Z,-2.36
2019-01-26T06:23:00.972Z,-2.35
2019-01-26T06:25:30.213Z,-2.32
2019-01-26T06:27:59.431Z,-2.29
2019-01-26T06:30:28.769Z,-2.25
2019-01-26T06:32:58.037Z,-2.19
2019-01-26T06:35:27.299Z,-2.24
2019-01-26T06:37:56.522Z,-2.21
2019-01-26T06:40:25.915Z,-2.23
2019-01-26T06:42:55.172Z,-2.21
2019-01-26T06:45:24.447Z,-2.15
2019-01-26T06:47:53.778Z,-2.06
2019-01-26T06:50:26.733Z,-2.05
2019-01-26T06:52:55.989Z,-2.07
2019-01-26T06:55:25.268Z,-2.01
2019-01-26T06:57:54.498Z,-1.93
2019-01-26T07:00:27.915Z,-1.89
2019-01-26T07:02:57.157Z,-1.83
2019-01-26T07:05:49.387Z,-1.80
2019-01-26T07:08:20.407Z,-1.72
2019-01-26T07:10:49.639Z,-1.70
2019-01-26T07:13:19.170Z,-1.71
2019-01-26T07:15:48.439Z,-1.70
2019-01-26T07:18:17.666Z,-1.69
2019-01-26T07:20:46.883Z,-1.67
2019-01-26T07:23:16.145Z,-1.68
2019-01-26T07:25:45.363Z,-1.67
2019-01-26T07:28:14.612Z,-1.66
2019-01-26T07:30:43.830Z,-1.64
2019-01-26T07:33:13.086Z,-1.59
2019-01-26T07:35:42.315Z,-1.54
2019-01-26T07:38:13.757Z,-1.52
2019-01-26T07:40:42.543Z,-1.53
2019-01-26T07:43:11.935Z,-1.54
2019-01-26T07:45:41.166Z,-1.59
2019-01-26T07:48:16.788Z,-1.59
2019-01-26T07:50:41.685Z,-1.58
2019-01-26T07:53:10.933Z,-1.59
2019-01-26T07:55:40.173Z,-1.58
2019-01-26T07:58:09.481Z,-1.57
2019-01-26T08:00:38.710Z,-1.55
2019-01-26T08:03:07.958Z,-1.53
2019-01-26T08:05:37.199Z,-1.53
2019-01-26T08:08:06.451Z,-1.46
2019-01-26T08:10:35.925Z,-1.43
2019-01-26T08:13:05.490Z,-1.38
2019-01-26T08:15:36.757Z,-1.35
2019-01-26T08:18:07.616Z,-1.42
2019-01-26T08:20:36.835Z,-1.44
2019-01-26T08:23:06.072Z,-1.45
2019-01-26T08:25:35.487Z,-1.44
2019-01-26T08:28:04.834Z,-1.40
2019-01-26T08:30:34.176Z,-1.36
2019-01-26T08:33:03.428Z,-1.32
2019-01-26T08:35:32.667Z,-1.28
2019-01-26T08:38:01.916Z,-1.23
2019-01-26T08:40:31.142Z,-1.15
2019-01-26T08:43:00.388Z,-1.08
2019-01-26T08:45:29.622Z,-1.01
2019-01-26T08:47:58.890Z,-0.98
2019-01-26T08:50:28.113Z,-0.91
2019-01-26T08:52:57.348Z,-0.89
2019-01-26T08:55:26.569Z,-0.83
2019-01-26T08:57:55.824Z,-0.82
2019-01-26T09:00:27.202Z,-0.82
2019-01-26T09:03:15.406Z,-0.79
2019-01-26T09:06:03.285Z,-0.71
2019-01-26T09:08:34.013Z,-0.63
2019-01-26T09:11:03.247Z,-0.66
2019-01-26T09:13:32.500Z,-0.65
2019-01-26T09:16:01.737Z,-0.61
2019-01-26T09:18:30.993Z,-0.59
2019-01-26T09:21:00.201Z,-0.53
2019-01-26T09:23:29.460Z,-0.53
2019-01-26T09:25:58.680Z,-0.58
2019-01-26T09:28:27.910Z,-0.60
2019-01-26T09:30:57.151Z,-0.61
2019-01-26T09:33:26.385Z,-0.62
2019-01-26T09:35:55.638Z,-0.56
2019-01-26T09:38:24.903Z,-0.53
2019-01-26T09:40:54.163Z,-0.49
2019-01-26T09:43:23.376Z,-0.45
2019-01-26T09:45:52.611Z,-0.43
2019-01-26T09:48:21.852Z,-0.34
2019-01-26T09:50:51.098Z,-0.29
2019-01-26T09:53:20.326Z,-0.24
2019-01-26T09:55:49.560Z,-0.21
2019-01-26T09:58:19.998Z,-0.19
2019-01-26T10:00:49.458Z,-0.17
2019-01-26T10:03:18.697Z,-0.11
2019-01-26T10:05:47.941Z,-0.05
2019-01-26T10:08:17.161Z,0.00
2019-01-26T10:10:46.411Z,0.03
2019-01-26T10:13:15.627Z,0.04
2019-01-26T10:15:44.877Z,0.03
2019-01-26T10:18:14.167Z,0.04
2019-01-26T10:20:43.449Z,0.07
2019-01-26T10:23:12.645Z,-0.04
2019-01-26T10:25:48.427Z,-0.04
2019-01-26T10:28:12.963Z,-0.02
2019-01-26T10:30:48.781Z,-0.03
2019-01-26T10:33:18.022Z,-0.05
2019-01-26T10:36:18.034Z,-0.01
2019-01-26T10:38:51.647Z,-0.01
2019-01-26T10:41:42.706Z,0.06
2019-01-26T10:44:15.367Z,0.07
2019-01-26T10:46:44.643Z,0.05
2019-01-26T10:49:13.908Z,0.10
2019-01-26T10:51:43.144Z,0.19
2019-01-26T10:54:12.401Z,0.25
2019-01-26T10:56:42.057Z,0.31
2019-01-26T10:59:11.279Z,0.36
2019-01-26T11:01:40.518Z,0.38
2019-01-26T11:04:09.732Z,0.42
2019-01-26T11:06:39.099Z,0.43
2019-01-26T11:09:11.622Z,0.42
2019-01-26T11:11:40.853Z,0.44
2019-01-26T11:14:10.142Z,0.42
2019-01-26T11:16:39.378Z,0.45
2019-01-26T11:19:08.614Z,0.46
2019-01-26T11:21:37.874Z,0.49
2019-01-26T11:24:07.102Z,0.50
2019-01-26T11:26:36.495Z,0.51
2019-01-26T11:29:05.717Z,0.51
2019-01-26T11:31:35.908Z,0.45
2019-01-26T11:34:05.724Z,0.45
2019-01-26T11:36:35.014Z,0.40
2019-01-26T11:39:07.353Z,0.38
2019-01-26T11:41:36.593Z,0.33
2019-01-26T11:44:05.928Z,0.31
2019-01-26T11:46:47.976Z,0.28
2019-01-26T11:49:17.191Z,0.30
2019-01-26T11:52:11.411Z,0.28
2019-01-26T11:55:19.172Z,0.31
2019-01-26T11:57:48.414Z,0.29
2019-01-26T12:00:59.478Z,0.30
2019-01-26T12:03:46.714Z,0.33
2019-01-26T12:06:28.260Z,0.36
2019-01-26T12:08:57.517Z,0.36
2019-01-26T12:11:27.398Z,0.37
2019-01-26T12:13:56.859Z,0.35
2019-01-26T12:16:27.119Z,0.41
2019-01-26T12:18:56.702Z,0.38
2019-01-26T12:21:25.909Z,0.40
2019-01-26T12:23:55.253Z,0.43
2019-01-26T12:26:24.524Z,0.44
2019-01-26T12:28:53.769Z,0.45
2019-01-26T12:31:22.981Z,0.46
2019-01-26T12:33:52.525Z,0.46
2019-01-26T12:36:21.780Z,0.49
2019-01-26T12:38:51.035Z,0.47
2019-01-26T12:41:20.454Z,0.45
2019-01-26T12:43:49.685Z,0.46
2019-01-26T12:46:19.329Z,0.55
2019-01-26T12:48:48.595Z,0.60
2019-01-26T12:51:19.984Z,0.62
2019-01-26T12:53:49.234Z,0.62
2019-01-26T12:56:18.614Z,0.62
2019-01-26T12:58:47.840Z,0.63
2019-01-26T13:01:17.189Z,0.64
2019-01-26T13:03:46.572Z,0.60
2019-01-26T13:06:15.807Z,0.57
2019-01-26T13:08:45.360Z,0.57
2019-01-26T13:11:19.764Z,0.53
2019-01-26T13:13:49.002Z,0.50
2019-01-26T13:16:18.214Z,0.54
2019-01-26T13:18:47.579Z,0.58
2019-01-26T13:21:16.799Z,0.63
2019-01-26T13:23:46.060Z,0.64
2019-01-26T13:26:15.279Z,0.68
2019-01-26T13:28:44.519Z,0.72
2019-01-26T13:31:13.992Z,0.75
2019-01-26T13:33:43.319Z,0.78
2019-01-26T13:36:12.589Z,0.77
2019-01-26T13:38:42.717Z,0.76
2019-01-26T13:41:11.957Z,0.77
2019-01-26T13:43:41.194Z,0.82
2019-01-26T13:46:10.464Z,0.85
2019-01-26T13:48:39.696Z,0.84
2019-01-26T13:51:12.965Z,0.80
2019-01-26T13:53:39.950Z,0.80
2019-01-26T13:56:09.208Z,0.83
2019-01-26T14:18:18.056Z,0.96
2019-01-26T14:20:47.299Z,0.96
2019-01-26T14:23:16.626Z,1.00
2019-01-26T14:25:45.860Z,1.05
2019-01-26T14:28:15.063Z,1.08
2019-01-26T14:30:53.919Z,1.10
2019-01-26T14:33:23.131Z,1.11
2019-01-26T14:35:52.380Z,1.13
2019-01-26T14:38:21.692Z,1.17
2019-01-26T14:40:50.925Z,1.16
2019-01-26T14:43:20.149Z,1.14
2019-01-26T14:45:49.403Z,1.17
2019-01-26T14:48:18.668Z,1.18
2019-01-26T14:50:47.901Z,1.18
2019-01-26T14:53:17.099Z,1.20
2019-01-26T14:55:46.383Z,1.18
2019-01-26T14:58:15.617Z,1.21
2019-01-26T15:00:44.841Z,1.24
2019-01-26T15:03:14.082Z,1.26
2019-01-26T15:05:43.318Z,1.28
2019-01-26T15:08:12.666Z,1.35
2019-01-26T15:10:41.980Z,1.35
2019-01-26T15:13:11.327Z,1.32
2019-01-26T15:15:40.569Z,1.26
2019-01-26T15:18:09.923Z,1.22
2019-01-26T15:20:40.869Z,1.15
2019-01-26T15:23:12.379Z,1.11
2019-01-26T15:25:41.948Z,1.09
2019-01-26T15:28:11.229Z,1.06
2019-01-26T15:30:42.510Z,1.08
2019-01-26T15:33:12.344Z,1.03
2019-01-26T15:35:41.605Z,1.04
2019-01-26T15:38:11.985Z,1.04
2019-01-26T15:40:42.402Z,1.06
2019-01-26T15:43:11.633Z,1.05
2019-01-26T15:45:43.490Z,1.05
2019-01-26T15:48:13.075Z,1.04
2019-01-26T15:50:42.506Z,1.05
2019-01-26T15:53:11.762Z,1.04
2019-01-26T15:55:41.024Z,1.00
2019-01-26T15:58:10.212Z,1.00
2019-01-26T16:00:42.178Z,0.98
2019-01-26T16:03:11.536Z,0.98
2019-01-26T16:05:41.075Z,0.97
2019-01-26T16:08:10.568Z,0.97
2019-01-26T16:10:39.849Z,0.97
2019-01-26T16:13:09.362Z,0.96
2019-01-26T16:15:39.230Z,0.97
2019-01-26T16:18:11.434Z,1.00
2019-01-26T16:20:40.645Z,1.00
2019-01-26T16:23:09.954Z,0.98
2019-01-26T16:25:39.126Z,1.01
2019-01-26T16:28:08.864Z,0.96
2019-01-26T16:30:38.238Z,0.97
2019-01-26T16:33:07.484Z,0.95
2019-01-26T16:35:36.766Z,0.95
2019-01-26T16:38:06.257Z,0.95
2019-01-26T16:40:36.343Z,0.92
2019-01-26T16:43:06.245Z,0.94
2019-01-26T16:45:37.802Z,0.93
2019-01-26T16:48:09.181Z,0.92
2019-01-26T16:50:38.689Z,0.96
2019-01-26T16:53:07.952Z,0.96
2019-01-26T16:55:37.160Z,0.96
2019-01-26T16:58:07.024Z,0.99
2019-01-26T17:00:45.024Z,0.99
2019-01-26T17:03:14.302Z,0.99
2019-01-26T17:05:43.530Z,0.93
2019-01-26T17:08:12.765Z,0.92
2019-01-26T17:10:41.989Z,0.91
2019-01-26T17:13:11.247Z,0.87
2019-01-26T17:15:40.466Z,0.87
2019-01-26T17:18:13.938Z,0.89
2019-01-26T17:20:42.114Z,0.90
2019-01-26T17:23:11.358Z,0.91
2019-01-26T17:25:40.567Z,0.91
2019-01-26T17:28:09.816Z,0.87
2019-01-26T17:30:40.767Z,0.90
2019-01-26T17:33:10.329Z,0.90
2019-01-26T17:35:39.647Z,0.88
2019-01-26T17:38:09.091Z,0.88
2019-01-26T17:40:38.347Z,0.86
2019-01-26T17:43:07.845Z,0.87
2019-01-26T17:45:37.475Z,0.89
2019-01-26T17:48:08.221Z,0.94
2019-01-26T17:50:42.122Z,0.92
2019-01-26T17:53:08.640Z,0.92
2019-01-26T17:55:37.909Z,0.89
2019-01-26T17:58:07.568Z,0.88
2019-01-26T18:00:44.074Z,0.88
2019-01-26T18:03:13.374Z,0.90
2019-01-26T18:05:42.606Z,0.90
2019-01-26T18:08:11.862Z,0.90
2019-01-26T18:10:41.098Z,0.93
2019-01-26T18:13:10.438Z,0.97
2019-01-26T18:15:39.791Z,0.97
2019-01-26T18:18:09.074Z,0.97
2019-01-26T18:20:38.369Z,0.95
2019-01-26T18:23:07.770Z,0.94
2019-01-26T18:25:38.682Z,0.96
2019-01-26T18:28:07.954Z,0.97
2019-01-26T18:30:38.852Z,0.96
2019-01-26T18:33:08.271Z,0.97
2019-01-26T18:35:37.547Z,0.98
2019-01-26T18:38:07.702Z,0.97
2019-01-26T18:40:36.983Z,0.98
2019-01-26T18:43:06.232Z,0.98
2019-01-26T18:45:35.476Z,0.99
2019-01-26T18:48:05.262Z,0.99
2019-01-26T18:50:35.871Z,1.02
2019-01-26T18:53:05.735Z,1.00
2019-01-26T18:55:35.058Z,1.02
2019-01-26T18:58:04.761Z,1.05
2019-01-26T19:00:36.875Z,1.04
2019-01-26T19:03:21.936Z,1.06
2019-01-26T19:05:52.454Z,1.06
2019-01-26T19:08:21.702Z,1.05
2019-01-26T19:10:51.073Z,1.05
2019-01-26T19:13:20.322Z,1.05
2019-01-26T19:15:49.457Z,1.07
2019-01-26T19:18:18.723Z,1.08
2019-01-26T19:20:48.115Z,1.09
2019-01-26T19:23:17.403Z,1.12
2019-01-26T19:25:46.646Z,1.13
2019-01-26T19:28:15.991Z,1.14
2019-01-26T19:30:45.239Z,1.10
2019-01-26T19:33:14.586Z,1.10
2019-01-26T19:35:43.834Z,1.09
2019-01-26T19:38:13.108Z,1.09
2019-01-26T19:40:42.342Z,1.08
2019-01-26T19:43:11.447Z,1.06
2019-01-26T19:45:40.679Z,1.06
2019-01-26T19:48:09.949Z,1.07
2019-01-26T19:50:39.199Z,1.10
2019-01-26T19:53:08.474Z,1.11
2019-01-26T19:55:37.802Z,1.13
2019-01-26T19:58:07.060Z,1.13
2019-01-26T20:00:36.309Z,1.14
2019-01-26T20:03:05.646Z,1.15
2019-01-26T20:05:34.897Z,1.16
2019-01-26T20:08:04.322Z,1.14
2019-01-26T20:10:33.706Z,1.14
2019-01-26T20:13:02.933Z,1.15
2019-01-26T20:15:32.187Z,1.17
2019-01-26T20:18:01.410Z,1.15
2019-01-26T20:20:32.678Z,1.17
2019-01-26T20:23:01.915Z,1.14
2019-01-26T20:25:31.240Z,1.19
2019-01-26T20:28:00.498Z,1.19
2019-01-26T20:30:31.313Z,1.18
2019-01-26T20:33:00.656Z,1.18
2019-01-26T20:35:29.907Z,1.17
2019-01-26T20:37:59.114Z,1.17
2019-01-26T20:40:28.371Z,1.20
2019-01-26T20:42:57.718Z,1.20
2019-01-26T20:45:28.237Z,1.19
2019-01-26T20:47:57.482Z,1.19
2019-01-26T20:50:26.730Z,1.19
2019-01-26T20:52:56.151Z,1.15
2019-01-26T20:55:25.391Z,1.18
2019-01-26T20:57:54.650Z,1.18
2019-01-26T21:00:26.177Z,1.20
2019-01-26T21:02:55.518Z,1.22
2019-01-26T21:05:24.814Z,1.24
2019-01-26T21:07:55.799Z,1.21
2019-01-26T21:10:26.960Z,1.20
2019-01-26T21:12:56.187Z,1.20
2019-01-26T21:15:25.548Z,1.19
2019-01-26T21:17:54.889Z,1.22
2019-01-26T21:20:24.725Z,1.24
2019-01-26T21:22:53.942Z,1.22
2019-01-26T21:25:23.298Z,1.25
2019-01-26T21:27:53.207Z,1.22
2019-01-26T21:30:24.535Z,1.23
2019-01-26T21:32:53.767Z,1.24
2019-01-26T21:35:23.449Z,1.24
2019-01-26T21:37:52.736Z,1.23
2019-01-26T21:40:24.097Z,1.17
2019-01-26T21:42:53.324Z,1.21
2019-01-26T21:45:22.805Z,1.22
2019-01-26T21:47:52.146Z,1.25
2019-01-26T21:50:27.514Z,1.25
2019-01-26T21:52:57.239Z,1.26
2019-01-26T21:55:26.485Z,1.29
2019-01-26T21:57:55.745Z,1.27
2019-01-26T22:00:30.060Z,1.29
2019-01-26T22:02:59.279Z,1.29
2019-01-26T22:05:28.517Z,1.26
2019-01-26T22:07:57.767Z,1.29
2019-01-26T22:10:27.277Z,1.26
2019-01-26T22:12:56.907Z,1.29
2019-01-26T22:15:26.151Z,1.30
2019-01-26T22:17:55.372Z,1.30
2019-01-26T22:20:26.422Z,1.32
2019-01-26T22:22:55.851Z,1.35
2019-01-26T22:25:25.116Z,1.30
2019-01-26T22:27:55.815Z,1.28
2019-01-26T22:30:29.956Z,1.31
2019-01-26T22:32:59.224Z,1.29
2019-01-26T22:35:28.465Z,1.29
2019-01-26T22:37:57.676Z,1.26
2019-01-26T22:40:29.173Z,1.27
2019-01-26T22:42:58.410Z,1.27
2019-01-26T22:45:27.832Z,1.27
2019-01-26T22:47:57.072Z,1.28
2019-01-26T22:50:26.581Z,1.23
2019-01-26T22:52:55.817Z,1.19
2019-01-26T22:55:25.141Z,1.20
2019-01-26T22:57:54.993Z,1.24
2019-01-26T23:00:54.778Z,1.26
2019-01-26T23:03:28.529Z,1.27
2019-01-26T23:06:37.260Z,1.28
2019-01-26T23:09:26.002Z,1.28
2019-01-26T23:12:24.461Z,1.23
2019-01-26T23:15:43.630Z,1.23
2019-01-26T23:18:34.484Z,1.23
2019-01-26T23:21:22.182Z,1.24
2019-01-26T23:24:32.024Z,1.21
2019-01-26T23:27:35.103Z,1.23
2019-01-26T23:30:48.159Z,1.17
2019-01-26T23:33:17.423Z,1.20
2019-01-26T23:35:46.663Z,1.17
2019-01-26T23:38:15.936Z,1.17
2019-01-26T23:40:45.181Z,1.21
2019-01-26T23:43:14.423Z,1.25
2019-01-26T23:45:43.676Z,1.24
2019-01-26T23:48:12.985Z,1.24
2019-01-26T23:50:42.244Z,1.23
2019-01-26T23:53:11.507Z,1.24
2019-01-26T23:55:40.823Z,1.26
2019-01-26T23:58:10.072Z,1.25
